sensor_id;sensor_type;location;lat;lon;timestamp;pressure;altitude;pressure_sealevel;temperature;humidity
49915;BME280;35806;47.958;13.158;2023-03-23T00:00:44;94296.22;;;9.39;48.82
49915;BME280;35806;47.958;13.158;2023-03-23T00:03:11;94294.84;;;9.32;48.67
49915;BME280;35806;47.958;13.158;2023-03-23T00:05:39;94294.89;;;9.81;48.90
49915;BME280;35806;47.958;13.158;2023-03-23T00:08:07;94292.33;;;9.56;48.72
49915;BME280;35806;47.958;13.158;2023-03-23T00:10:35;94290.25;;;9.50;48.54
49915;BME280;35806;47.958;13.158;2023-03-23T00:13:02;94288.05;;;9.73;48.43
49915;BME280;35806;47.958;13.158;2023-03-23T00:15:28;94289.95;;;9.94;47.85
49915;BME280;35806;47.958;13.158;2023-03-23T00:17:56;94291.60;;;9.68;48.18
49915;BME280;35806;47.958;13.158;2023-03-23T00:20:23;94292.61;;;9.75;47.97
49915;BME280;35806;47.958;13.158;2023-03-23T00:22:51;94297.15;;;9.86;47.52
49915;BME280;35806;47.958;13.158;2023-03-23T00:25:19;94296.75;;;9.64;48.70
49915;BME280;35806;47.958;13.158;2023-03-23T00:27:46;94301.04;;;9.00;49.61
49915;BME280;35806;47.958;13.158;2023-03-23T00:30:14;94295.11;;;9.62;47.68
49915;BME280;35806;47.958;13.158;2023-03-23T00:32:41;94294.96;;;9.90;48.86
49915;BME280;35806;47.958;13.158;2023-03-23T00:35:08;94292.71;;;9.48;48.37
49915;BME280;35806;47.958;13.158;2023-03-23T00:37:35;94289.54;;;10.10;48.13
49915;BME280;35806;47.958;13.158;2023-03-23T00:40:04;94290.78;;;10.01;49.55
49915;BME280;35806;47.958;13.158;2023-03-23T00:42:31;94288.58;;;9.90;48.25
49915;BME280;35806;47.958;13.158;2023-03-23T00:44:59;94286.85;;;9.94;47.91
49915;BME280;35806;47.958;13.158;2023-03-23T00:47:27;94289.90;;;10.03;47.55
49915;BME280;35806;47.958;13.158;2023-03-23T00:49:54;94286.11;;;9.80;48.51
49915;BME280;35806;47.958;13.158;2023-03-23T00:52:22;94284.33;;;10.33;47.15
49915;BME280;35806;47.958;13.158;2023-03-23T00:54:49;94281.89;;;9.87;48.54
49915;BME280;35806;47.958;13.158;2023-03-23T00:57:16;94278.97;;;9.72;48.20
49915;BME280;35806;47.958;13.158;2023-03-23T00:59:43;94277.05;;;9.02;48.08
49915;BME280;35806;47.958;13.158;2023-03-23T01:02:10;94277.24;;;9.13;47.88
49915;BME280;35806;47.958;13.158;2023-03-23T01:04:38;94275.88;;;10.06;47.03
49915;BME280;35806;47.958;13.158;2023-03-23T01:07:06;94278.08;;;9.63;47.51
49915;BME280;35806;47.958;13.158;2023-03-23T01:09:33;94274.15;;;9.49;48.08
49915;BME280;35806;47.958;13.158;2023-03-23T01:11:59;94271.40;;;9.56;47.40
49915;BME280;35806;47.958;13.158;2023-03-23T01:14:27;94268.23;;;10.05;46.95
49915;BME280;35806;47.958;13.158;2023-03-23T01:16:55;94268.69;;;9.69;47.58
49915;BME280;35806;47.958;13.158;2023-03-23T01:19:22;94264.88;;;9.75;47.24
49915;BME280;35806;47.958;13.158;2023-03-23T01:21:50;94259.96;;;9.76;47.24
49915;BME280;35806;47.958;13.158;2023-03-23T01:24:17;94256.27;;;9.63;47.17
49915;BME280;35806;47.958;13.158;2023-03-23T01:26:45;94254.61;;;9.79;46.89
49915;BME280;35806;47.958;13.158;2023-03-23T01:29:12;94249.02;;;9.95;47.38
49915;BME280;35806;47.958;13.158;2023-03-23T01:31:40;94248.53;;;10.24;47.42
49915;BME280;35806;47.958;13.158;2023-03-23T01:34:07;94245.76;;;9.58;47.77
49915;BME280;35806;47.958;13.158;2023-03-23T01:36:34;94244.83;;;10.13;47.44
49915;BME280;35806;47.958;13.158;2023-03-23T01:39:04;94243.84;;;10.17;47.54
49915;BME280;35806;47.958;13.158;2023-03-23T01:41:32;94240.19;;;10.10;47.17
49915;BME280;35806;47.958;13.158;2023-03-23T01:44:02;94236.66;;;9.89;47.77
49915;BME280;35806;47.958;13.158;2023-03-23T01:46:31;94232.43;;;10.56;46.62
49915;BME280;35806;47.958;13.158;2023-03-23T01:49:02;94231.47;;;9.77;48.34
49915;BME280;35806;47.958;13.158;2023-03-23T01:51:30;94228.86;;;9.43;48.22
49915;BME280;35806;47.958;13.158;2023-03-23T01:54:01;94229.84;;;9.64;47.50
49915;BME280;35806;47.958;13.158;2023-03-23T01:56:32;94227.34;;;10.02;46.87
49915;BME280;35806;47.958;13.158;2023-03-23T01:59:02;94223.91;;;10.16;47.12
49915;BME280;35806;47.958;13.158;2023-03-23T02:15:36;94218.28;;;9.63;44.37
49915;BME280;35806;47.958;13.158;2023-03-23T02:18:10;94215.68;;;11.06;44.32
49915;BME280;35806;47.958;13.158;2023-03-23T02:21:01;94216.70;;;10.59;44.78
49915;BME280;35806;47.958;13.158;2023-03-23T02:23:49;94215.26;;;10.31;45.30
49915;BME280;35806;47.958;13.158;2023-03-23T02:26:31;94217.05;;;10.39;45.31
49915;BME280;35806;47.958;13.158;2023-03-23T02:29:11;94215.43;;;10.00;46.07
49915;BME280;35806;47.958;13.158;2023-03-23T02:31:50;94211.35;;;10.64;45.75
49915;BME280;35806;47.958;13.158;2023-03-23T02:34:24;94212.87;;;9.67;45.86
49915;BME280;35806;47.958;13.158;2023-03-23T02:36:58;94209.90;;;10.04;45.75
49915;BME280;35806;47.958;13.158;2023-03-23T02:39:29;94206.70;;;10.32;45.72
49915;BME280;35806;47.958;13.158;2023-03-23T02:42:02;94208.92;;;10.20;46.18
49915;BME280;35806;47.958;13.158;2023-03-23T02:44:31;94211.21;;;10.02;46.97
49915;BME280;35806;47.958;13.158;2023-03-23T02:47:02;94208.20;;;10.07;46.26
49915;BME280;35806;47.958;13.158;2023-03-23T02:49:33;94207.08;;;10.29;45.42
49915;BME280;35806;47.958;13.158;2023-03-23T02:52:04;94208.21;;;10.63;45.56
49915;BME280;35806;47.958;13.158;2023-03-23T02:54:32;94209.58;;;8.47;48.83
49915;BME280;35806;47.958;13.158;2023-03-23T02:57:00;94210.54;;;8.14;52.02
49915;BME280;35806;47.958;13.158;2023-03-23T02:59:28;94208.76;;;8.86;49.79
49915;BME280;35806;47.958;13.158;2023-03-23T03:02:04;94214.05;;;7.54;53.73
49915;BME280;35806;47.958;13.158;2023-03-23T03:04:33;94211.13;;;9.30;49.52
49915;BME280;35806;47.958;13.158;2023-03-23T03:07:16;94210.61;;;9.35;48.72
49915;BME280;35806;47.958;13.158;2023-03-23T03:09:50;94213.12;;;9.17;49.35
49915;BME280;35806;47.958;13.158;2023-03-23T03:12:26;94211.66;;;7.63;51.94
49915;BME280;35806;47.958;13.158;2023-03-23T03:15:07;94210.97;;;9.05;49.82
49915;BME280;35806;47.958;13.158;2023-03-23T03:17:41;94208.02;;;9.94;48.19
49915;BME280;35806;47.958;13.158;2023-03-23T03:20:12;94209.04;;;9.77;47.83
49915;BME280;35806;47.958;13.158;2023-03-23T03:22:43;94214.89;;;9.41;47.78
49915;BME280;35806;47.958;13.158;2023-03-23T03:25:12;94218.41;;;8.79;49.15
49915;BME280;35806;47.958;13.158;2023-03-23T03:27:41;94220.05;;;9.96;47.16
49915;BME280;35806;47.958;13.158;2023-03-23T03:30:14;94219.52;;;9.51;47.09
49915;BME280;35806;47.958;13.158;2023-03-23T03:32:46;94217.23;;;9.72;46.81
49915;BME280;35806;47.958;13.158;2023-03-23T03:35:15;94220.27;;;10.22;46.58
49915;BME280;35806;47.958;13.158;2023-03-23T03:37:42;94219.06;;;10.62;45.24
49915;BME280;35806;47.958;13.158;2023-03-23T03:40:13;94217.80;;;9.97;46.29
49915;BME280;35806;47.958;13.158;2023-03-23T03:42:42;94215.57;;;9.97;45.80
49915;BME280;35806;47.958;13.158;2023-03-23T03:45:12;94218.36;;;10.38;46.24
49915;BME280;35806;47.958;13.158;2023-03-23T03:47:40;94222.37;;;9.78;46.07
49915;BME280;35806;47.958;13.158;2023-03-23T03:50:08;94228.24;;;9.00;47.62
49915;BME280;35806;47.958;13.158;2023-03-23T03:52:35;94224.17;;;9.64;45.65
49915;BME280;35806;47.958;13.158;2023-03-23T03:55:03;94225.70;;;9.40;46.64
49915;BME280;35806;47.958;13.158;2023-03-23T03:57:30;94224.81;;;9.63;46.48
49915;BME280;35806;47.958;13.158;2023-03-23T03:59:58;94226.37;;;9.30;46.99
49915;BME280;35806;47.958;13.158;2023-03-23T04:02:25;94227.11;;;9.63;46.80
49915;BME280;35806;47.958;13.158;2023-03-23T04:04:53;94224.89;;;9.29;46.71
49915;BME280;35806;47.958;13.158;2023-03-23T04:07:20;94217.14;;;9.48;46.67
49915;BME280;35806;47.958;13.158;2023-03-23T04:09:48;94216.35;;;9.76;47.01
49915;BME280;35806;47.958;13.158;2023-03-23T04:12:15;94219.81;;;8.25;47.74
49915;BME280;35806;47.958;13.158;2023-03-23T04:14:42;94225.42;;;8.96;47.76
49915;BME280;35806;47.958;13.158;2023-03-23T04:17:09;94221.06;;;9.11;47.66
49915;BME280;35806;47.958;13.158;2023-03-23T04:19:37;94223.34;;;9.31;47.21
49915;BME280;35806;47.958;13.158;2023-03-23T04:22:05;94221.60;;;9.87;46.63
49915;BME280;35806;47.958;13.158;2023-03-23T04:24:32;94228.68;;;9.36;48.19
49915;BME280;35806;47.958;13.158;2023-03-23T04:26:59;94229.56;;;9.25;48.27
49915;BME280;35806;47.958;13.158;2023-03-23T04:29:27;94230.36;;;9.32;47.67
49915;BME280;35806;47.958;13.158;2023-03-23T04:31:54;94233.03;;;9.01;49.28
49915;BME280;35806;47.958;13.158;2023-03-23T04:34:20;94235.40;;;8.86;49.52
49915;BME280;35806;47.958;13.158;2023-03-23T04:36:47;94237.27;;;8.27;49.58
49915;BME280;35806;47.958;13.158;2023-03-23T04:39:15;94231.70;;;9.84;47.20
49915;BME280;35806;47.958;13.158;2023-03-23T04:41:42;94241.11;;;7.85;50.58
49915;BME280;35806;47.958;13.158;2023-03-23T04:44:11;94240.39;;;9.34;47.96
49915;BME280;35806;47.958;13.158;2023-03-23T04:46:38;94234.49;;;10.05;46.74
49915;BME280;35806;47.958;13.158;2023-03-23T04:49:05;94235.32;;;9.58;47.69
49915;BME280;35806;47.958;13.158;2023-03-23T04:51:32;94238.62;;;9.75;46.33
49915;BME280;35806;47.958;13.158;2023-03-23T04:53:59;94243.26;;;10.06;46.42
49915;BME280;35806;47.958;13.158;2023-03-23T04:56:27;94243.34;;;9.47;46.43
49915;BME280;35806;47.958;13.158;2023-03-23T04:58:54;94243.10;;;10.45;45.28
49915;BME280;35806;47.958;13.158;2023-03-23T05:01:21;94242.44;;;10.29;45.71
49915;BME280;35806;47.958;13.158;2023-03-23T05:03:48;94240.22;;;10.63;45.14
49915;BME280;35806;47.958;13.158;2023-03-23T05:06:15;94244.60;;;10.02;44.91
49915;BME280;35806;47.958;13.158;2023-03-23T05:08:42;94246.83;;;8.91;48.45
49915;BME280;35806;47.958;13.158;2023-03-23T05:11:10;94247.84;;;10.28;46.33
49915;BME280;35806;47.958;13.158;2023-03-23T05:13:37;94249.60;;;10.36;45.73
49915;BME280;35806;47.958;13.158;2023-03-23T05:16:06;94252.26;;;10.04;45.94
49915;BME280;35806;47.958;13.158;2023-03-23T05:18:33;94250.16;;;10.59;45.83
49915;BME280;35806;47.958;13.158;2023-03-23T05:21:02;94251.18;;;10.49;45.29
49915;BME280;35806;47.958;13.158;2023-03-23T05:23:30;94256.17;;;10.10;46.33
49915;BME280;35806;47.958;13.158;2023-03-23T05:25:58;94257.27;;;10.57;45.49
49915;BME280;35806;47.958;13.158;2023-03-23T05:28:25;94260.42;;;10.43;45.45
49915;BME280;35806;47.958;13.158;2023-03-23T05:30:52;94262.11;;;9.46;47.01
49915;BME280;35806;47.958;13.158;2023-03-23T05:33:20;94263.73;;;10.01;44.95
49915;BME280;35806;47.958;13.158;2023-03-23T05:35:48;94271.04;;;10.38;45.17
49915;BME280;35806;47.958;13.158;2023-03-23T05:38:15;94272.57;;;9.33;45.87
49915;BME280;35806;47.958;13.158;2023-03-23T05:40:43;94277.47;;;9.69;46.14
49915;BME280;35806;47.958;13.158;2023-03-23T05:43:11;94276.86;;;9.54;46.31
49915;BME280;35806;47.958;13.158;2023-03-23T05:45:38;94275.16;;;9.92;46.66
49915;BME280;35806;47.958;13.158;2023-03-23T05:48:05;94271.81;;;9.32;47.82
49915;BME280;35806;47.958;13.158;2023-03-23T05:50:32;94274.72;;;9.16;47.49
49915;BME280;35806;47.958;13.158;2023-03-23T05:53:00;94271.67;;;8.94;47.77
49915;BME280;35806;47.958;13.158;2023-03-23T05:55:28;94271.33;;;9.60;47.39
49915;BME280;35806;47.958;13.158;2023-03-23T05:57:56;94276.95;;;8.87;48.76
49915;BME280;35806;47.958;13.158;2023-03-23T06:00:23;94280.46;;;9.78;46.69
49915;BME280;35806;47.958;13.158;2023-03-23T06:02:55;94278.15;;;8.97;48.70
49915;BME280;35806;47.958;13.158;2023-03-23T06:05:22;94283.19;;;9.26;48.99
49915;BME280;35806;47.958;13.158;2023-03-23T06:07:50;94288.46;;;9.03;48.63
49915;BME280;35806;47.958;13.158;2023-03-23T06:10:17;94291.05;;;8.94;49.53
49915;BME280;35806;47.958;13.158;2023-03-23T06:12:45;94291.89;;;8.23;51.78
49915;BME280;35806;47.958;13.158;2023-03-23T06:15:13;94288.97;;;8.03;52.50
49915;BME280;35806;47.958;13.158;2023-03-23T06:17:40;94285.56;;;9.50;49.04
49915;BME280;35806;47.958;13.158;2023-03-23T06:20:08;94287.78;;;10.16;48.22
49915;BME280;35806;47.958;13.158;2023-03-23T06:22:37;94283.32;;;10.24;48.21
49915;BME280;35806;47.958;13.158;2023-03-23T06:25:06;94284.71;;;10.53;46.73
49915;BME280;35806;47.958;13.158;2023-03-23T06:27:34;94283.16;;;10.78;46.25
49915;BME280;35806;47.958;13.158;2023-03-23T06:30:03;94288.70;;;11.45;44.73
49915;BME280;35806;47.958;13.158;2023-03-23T06:32:32;94293.67;;;11.59;44.70
49915;BME280;35806;47.958;13.158;2023-03-23T06:35:00;94293.62;;;11.59;44.21
49915;BME280;35806;47.958;13.158;2023-03-23T06:37:28;94292.99;;;12.09;43.95
49915;BME280;35806;47.958;13.158;2023-03-23T06:39:55;94289.93;;;12.34;43.64
49915;BME280;35806;47.958;13.158;2023-03-23T06:42:23;94292.10;;;11.57;43.81
49915;BME280;35806;47.958;13.158;2023-03-23T06:44:50;94293.13;;;11.79;44.86
49915;BME280;35806;47.958;13.158;2023-03-23T06:47:18;94293.75;;;11.81;43.37
49915;BME280;35806;47.958;13.158;2023-03-23T06:49:45;94295.80;;;11.75;43.66
49915;BME280;35806;47.958;13.158;2023-03-23T06:52:13;94298.58;;;11.73;42.31
49915;BME280;35806;47.958;13.158;2023-03-23T06:54:41;94296.32;;;12.36;43.22
49915;BME280;35806;47.958;13.158;2023-03-23T06:57:08;94297.34;;;12.62;44.01
49915;BME280;35806;47.958;13.158;2023-03-23T06:59:36;94304.11;;;12.42;42.67
49915;BME280;35806;47.958;13.158;2023-03-23T07:02:03;94308.56;;;12.93;42.90
49915;BME280;35806;47.958;13.158;2023-03-23T07:04:31;94310.96;;;12.80;42.62
49915;BME280;35806;47.958;13.158;2023-03-23T07:06:58;94312.01;;;12.06;43.54
49915;BME280;35806;47.958;13.158;2023-03-23T07:09:26;94310.90;;;13.23;41.87
49915;BME280;35806;47.958;13.158;2023-03-23T07:11:53;94314.77;;;13.06;42.89
49915;BME280;35806;47.958;13.158;2023-03-23T07:14:21;94317.49;;;12.90;41.67
49915;BME280;35806;47.958;13.158;2023-03-23T07:16:48;94319.43;;;11.79;44.22
49915;BME280;35806;47.958;13.158;2023-03-23T07:19:16;94320.93;;;11.77;43.21
49915;BME280;35806;47.958;13.158;2023-03-23T07:21:43;94320.66;;;12.73;42.17
49915;BME280;35806;47.958;13.158;2023-03-23T07:24:12;94318.00;;;14.02;40.26
49915;BME280;35806;47.958;13.158;2023-03-23T07:26:39;94318.88;;;14.51;38.84
49915;BME280;35806;47.958;13.158;2023-03-23T07:29:07;94320.92;;;14.36;39.19
49915;BME280;35806;47.958;13.158;2023-03-23T07:31:34;94323.31;;;14.31;39.39
49915;BME280;35806;47.958;13.158;2023-03-23T07:34:02;94322.81;;;15.40;38.36
49915;BME280;35806;47.958;13.158;2023-03-23T07:36:29;94323.18;;;14.75;36.88
49915;BME280;35806;47.958;13.158;2023-03-23T07:38:58;94322.99;;;16.31;35.82
49915;BME280;35806;47.958;13.158;2023-03-23T07:41:25;94318.30;;;16.36;35.43
49915;BME280;35806;47.958;13.158;2023-03-23T07:43:51;94321.40;;;16.97;33.88
49915;BME280;35806;47.958;13.158;2023-03-23T07:46:19;94319.96;;;14.34;37.02
49915;BME280;35806;47.958;13.158;2023-03-23T07:48:46;94319.88;;;14.99;36.68
49915;BME280;35806;47.958;13.158;2023-03-23T07:51:14;94318.52;;;14.98;37.28
49915;BME280;35806;47.958;13.158;2023-03-23T07:53:42;94313.09;;;15.98;35.50
49915;BME280;35806;47.958;13.158;2023-03-23T07:56:09;94311.24;;;16.52;35.76
49915;BME280;35806;47.958;13.158;2023-03-23T07:58:36;94311.13;;;16.38;33.73
49915;BME280;35806;47.958;13.158;2023-03-23T08:01:04;94310.89;;;16.08;34.32
49915;BME280;35806;47.958;13.158;2023-03-23T08:03:31;94311.35;;;16.23;34.53
49915;BME280;35806;47.958;13.158;2023-03-23T08:05:59;94308.69;;;16.72;35.55
49915;BME280;35806;47.958;13.158;2023-03-23T08:08:26;94307.69;;;17.04;34.68
49915;BME280;35806;47.958;13.158;2023-03-23T08:10:54;94304.41;;;17.12;33.69
49915;BME280;35806;47.958;13.158;2023-03-23T08:13:22;94302.85;;;16.61;33.91
49915;BME280;35806;47.958;13.158;2023-03-23T08:15:49;94299.87;;;17.02;32.76
49915;BME280;35806;47.958;13.158;2023-03-23T08:18:17;94301.53;;;16.35;32.97
49915;BME280;35806;47.958;13.158;2023-03-23T08:20:45;94298.02;;;17.22;33.40
49915;BME280;35806;47.958;13.158;2023-03-23T08:23:12;94298.03;;;17.58;32.28
49915;BME280;35806;47.958;13.158;2023-03-23T08:25:39;94291.65;;;18.09;32.64
49915;BME280;35806;47.958;13.158;2023-03-23T08:28:08;94290.26;;;18.16;34.08
49915;BME280;35806;47.958;13.158;2023-03-23T08:30:35;94290.90;;;17.93;36.85
49915;BME280;35806;47.958;13.158;2023-03-23T08:33:02;94288.43;;;17.49;37.11
49915;BME280;35806;47.958;13.158;2023-03-23T08:35:29;94287.43;;;17.45;36.58
49915;BME280;35806;47.958;13.158;2023-03-23T08:37:57;94290.14;;;17.54;36.68
49915;BME280;35806;47.958;13.158;2023-03-23T08:40:24;94288.29;;;17.97;36.01
49915;BME280;35806;47.958;13.158;2023-03-23T08:42:52;94285.43;;;17.83;37.21
49915;BME280;35806;47.958;13.158;2023-03-23T08:45:23;94293.52;;;17.83;38.84
49915;BME280;35806;47.958;13.158;2023-03-23T08:47:51;94291.95;;;18.85;36.73
49915;BME280;35806;47.958;13.158;2023-03-23T08:50:21;94288.92;;;18.95;35.74
49915;BME280;35806;47.958;13.158;2023-03-23T08:52:49;94286.83;;;18.64;33.54
49915;BME280;35806;47.958;13.158;2023-03-23T08:55:17;94281.16;;;18.94;32.36
49915;BME280;35806;47.958;13.158;2023-03-23T08:57:44;94275.98;;;19.20;33.46
49915;BME280;35806;47.958;13.158;2023-03-23T09:00:15;94274.19;;;18.81;32.58
49915;BME280;35806;47.958;13.158;2023-03-23T09:02:43;94280.39;;;18.39;33.78
49915;BME280;35806;47.958;13.158;2023-03-23T09:05:11;94281.04;;;18.49;33.43
49915;BME280;35806;47.958;13.158;2023-03-23T09:07:40;94278.87;;;18.84;33.61
49915;BME280;35806;47.958;13.158;2023-03-23T09:10:09;94285.40;;;18.53;34.43
49915;BME280;35806;47.958;13.158;2023-03-23T09:12:37;94290.20;;;18.53;36.03
49915;BME280;35806;47.958;13.158;2023-03-23T09:15:06;94298.22;;;18.77;37.25
49915;BME280;35806;47.958;13.158;2023-03-23T09:17:33;94302.00;;;18.98;34.22
49915;BME280;35806;47.958;13.158;2023-03-23T09:20:01;94304.34;;;18.62;34.57
49915;BME280;35806;47.958;13.158;2023-03-23T09:22:28;94301.12;;;19.69;34.18
49915;BME280;35806;47.958;13.158;2023-03-23T09:24:55;94304.93;;;19.63;31.96
49915;BME280;35806;47.958;13.158;2023-03-23T09:27:22;94305.68;;;19.17;30.66
49915;BME280;35806;47.958;13.158;2023-03-23T09:29:50;94304.38;;;20.12;32.32
49915;BME280;35806;47.958;13.158;2023-03-23T09:32:17;94306.20;;;18.96;33.38
49915;BME280;35806;47.958;13.158;2023-03-23T09:34:45;94304.51;;;19.38;31.77
49915;BME280;35806;47.958;13.158;2023-03-23T09:37:13;94308.43;;;18.90;32.84
49915;BME280;35806;47.958;13.158;2023-03-23T09:39:40;94308.45;;;20.44;30.48
49915;BME280;35806;47.958;13.158;2023-03-23T09:42:35;94305.88;;;20.79;29.71
49915;BME280;35806;47.958;13.158;2023-03-23T09:45:16;94307.73;;;21.07;29.00
49915;BME280;35806;47.958;13.158;2023-03-23T09:47:52;94307.01;;;20.92;28.69
49915;BME280;35806;47.958;13.158;2023-03-23T09:50:27;94303.36;;;20.94;27.74
49915;BME280;35806;47.958;13.158;2023-03-23T09:52:58;94301.97;;;21.14;29.45
49915;BME280;35806;47.958;13.158;2023-03-23T09:55:25;94297.91;;;20.73;29.29
49915;BME280;35806;47.958;13.158;2023-03-23T09:57:56;94294.91;;;20.07;30.30
49915;BME280;35806;47.958;13.158;2023-03-23T10:00:30;94297.62;;;20.08;33.22
49915;BME280;35806;47.958;13.158;2023-03-23T10:03:05;94296.25;;;21.56;30.02
49915;BME280;35806;47.958;13.158;2023-03-23T10:05:34;94292.46;;;20.25;31.59
49915;BME280;35806;47.958;13.158;2023-03-23T10:08:10;94290.78;;;21.21;29.90
49915;BME280;35806;47.958;13.158;2023-03-23T10:10:47;94289.54;;;21.22;29.25
49915;BME280;35806;47.958;13.158;2023-03-23T10:13:27;94285.73;;;21.12;31.61
49915;BME280;35806;47.958;13.158;2023-03-23T10:15:58;94283.16;;;22.10;28.75
49915;BME280;35806;47.958;13.158;2023-03-23T10:18:33;94283.93;;;22.65;28.07
49915;BME280;35806;47.958;13.158;2023-03-23T10:21:01;94284.11;;;22.57;26.91
49915;BME280;35806;47.958;13.158;2023-03-23T10:23:45;94276.68;;;23.98;26.73
49915;BME280;35806;47.958;13.158;2023-03-23T10:26:26;94279.47;;;23.15;24.50
49915;BME280;35806;47.958;13.158;2023-03-23T10:28:58;94276.57;;;24.24;23.29
49915;BME280;35806;47.958;13.158;2023-03-23T10:31:31;94277.52;;;24.07;22.30
49915;BME280;35806;47.958;13.158;2023-03-23T10:34:13;94272.56;;;24.15;23.46
49915;BME280;35806;47.958;13.158;2023-03-23T10:36:55;94268.88;;;24.11;23.79
49915;BME280;35806;47.958;13.158;2023-03-23T10:39:26;94264.64;;;24.49;21.77
49915;BME280;35806;47.958;13.158;2023-03-23T10:41:54;94260.83;;;23.79;23.17
49915;BME280;35806;47.958;13.158;2023-03-23T10:44:24;94263.48;;;24.14;20.36
49915;BME280;35806;47.958;13.158;2023-03-23T10:46:56;94262.53;;;24.25;20.82
49915;BME280;35806;47.958;13.158;2023-03-23T10:49:27;94263.13;;;24.87;21.25
49915;BME280;35806;47.958;13.158;2023-03-23T10:52:01;94258.21;;;24.21;20.80
49915;BME280;35806;47.958;13.158;2023-03-23T10:54:35;94259.31;;;24.57;22.65
49915;BME280;35806;47.958;13.158;2023-03-23T10:57:13;94253.81;;;24.55;21.21
49915;BME280;35806;47.958;13.158;2023-03-23T10:59:47;94255.29;;;24.44;20.68
49915;BME280;35806;47.958;13.158;2023-03-23T11:02:16;94252.58;;;24.28;21.13
49915;BME280;35806;47.958;13.158;2023-03-23T11:04:53;94254.36;;;24.60;20.39
49915;BME280;35806;47.958;13.158;2023-03-23T11:07:26;94254.53;;;23.45;21.53
49915;BME280;35806;47.958;13.158;2023-03-23T11:09:56;94249.75;;;22.94;22.65
49915;BME280;35806;47.958;13.158;2023-03-23T11:12:24;94250.74;;;24.55;23.39
49915;BME280;35806;47.958;13.158;2023-03-23T11:14:51;94250.23;;;24.26;22.06
49915;BME280;35806;47.958;13.158;2023-03-23T11:17:22;94251.36;;;24.77;21.51
49915;BME280;35806;47.958;13.158;2023-03-23T11:19:50;94251.94;;;24.93;20.10
49915;BME280;35806;47.958;13.158;2023-03-23T11:22:22;94252.61;;;26.00;20.63
49915;BME280;35806;47.958;13.158;2023-03-23T11:24:53;94254.71;;;26.83;20.37
49915;BME280;35806;47.958;13.158;2023-03-23T11:27:23;94252.77;;;26.11;18.54
49915;BME280;35806;47.958;13.158;2023-03-23T11:29:52;94256.14;;;25.41;19.97
49915;BME280;35806;47.958;13.158;2023-03-23T11:32:24;94253.50;;;24.19;20.78
49915;BME280;35806;47.958;13.158;2023-03-23T11:34:56;94256.41;;;24.66;19.92
49915;BME280;35806;47.958;13.158;2023-03-23T11:37:29;94259.37;;;24.85;20.08
49915;BME280;35806;47.958;13.158;2023-03-23T11:39:59;94257.64;;;24.44;22.70
49915;BME280;35806;47.958;13.158;2023-03-23T11:42:35;94259.05;;;23.69;20.63
49915;BME280;35806;47.958;13.158;2023-03-23T11:45:15;94260.18;;;23.50;21.13
49915;BME280;35806;47.958;13.158;2023-03-23T11:47:58;94263.17;;;23.30;21.00
49915;BME280;35806;47.958;13.158;2023-03-23T11:50:30;94261.80;;;23.11;21.36
49915;BME280;35806;47.958;13.158;2023-03-23T11:53:06;94256.92;;;23.47;20.31
49915;BME280;35806;47.958;13.158;2023-03-23T11:55:49;94261.86;;;22.90;21.64
49915;BME280;35806;47.958;13.158;2023-03-23T11:58:19;94257.23;;;22.79;21.05
49915;BME280;35806;47.958;13.158;2023-03-23T12:00:51;94253.54;;;23.88;21.79
49915;BME280;35806;47.958;13.158;2023-03-23T12:03:43;94250.34;;;23.19;21.09
49915;BME280;35806;47.958;13.158;2023-03-23T12:06:19;94256.50;;;22.77;20.81
49915;BME280;35806;47.958;13.158;2023-03-23T12:08:59;94255.26;;;18.45;25.76
49915;BME280;35806;47.958;13.158;2023-03-23T12:11:34;94259.80;;;21.10;25.32
49915;BME280;35806;47.958;13.158;2023-03-23T12:14:15;94260.90;;;17.59;27.76
49915;BME280;35806;47.958;13.158;2023-03-23T12:16:53;94259.51;;;18.39;26.63
49915;BME280;35806;47.958;13.158;2023-03-23T12:19:29;94261.17;;;18.14;26.74
49915;BME280;35806;47.958;13.158;2023-03-23T12:22:08;94264.19;;;17.43;28.82
49915;BME280;35806;47.958;13.158;2023-03-23T12:24:48;94264.42;;;18.34;27.36
49915;BME280;35806;47.958;13.158;2023-03-23T12:27:27;94267.62;;;18.78;27.50
49915;BME280;35806;47.958;13.158;2023-03-23T12:30:06;94268.52;;;18.72;27.14
49915;BME280;35806;47.958;13.158;2023-03-23T12:32:57;94264.48;;;18.51;26.57
49915;BME280;35806;47.958;13.158;2023-03-23T12:35:34;94258.30;;;18.67;26.71
49915;BME280;35806;47.958;13.158;2023-03-23T12:38:41;94255.63;;;19.24;25.39
49915;BME280;35806;47.958;13.158;2023-03-23T12:41:17;94252.47;;;19.00;25.71
49915;BME280;35806;47.958;13.158;2023-03-23T12:43:50;94249.09;;;19.81;25.39
49915;BME280;35806;47.958;13.158;2023-03-23T12:46:45;94242.54;;;17.88;27.70
49915;BME280;35806;47.958;13.158;2023-03-23T12:49:21;94239.18;;;17.69;28.56
49915;BME280;35806;47.958;13.158;2023-03-23T12:51:55;94232.72;;;19.61;27.90
49915;BME280;35806;47.958;13.158;2023-03-23T12:54:29;94232.91;;;20.24;27.38
49915;BME280;35806;47.958;13.158;2023-03-23T12:57:02;94233.83;;;18.25;27.66
49915;BME280;35806;47.958;13.158;2023-03-23T12:59:39;94228.93;;;18.42;29.75
49915;BME280;35806;47.958;13.158;2023-03-23T13:02:19;94229.33;;;18.02;28.28
49915;BME280;35806;47.958;13.158;2023-03-23T13:04:51;94229.14;;;18.53;27.49
49915;BME280;35806;47.958;13.158;2023-03-23T13:07:23;94234.77;;;18.44;28.30
49915;BME280;35806;47.958;13.158;2023-03-23T13:10:02;94233.80;;;18.31;26.46
49915;BME280;35806;47.958;13.158;2023-03-23T13:12:31;94229.27;;;19.45;26.11
49915;BME280;35806;47.958;13.158;2023-03-23T13:15:05;94232.60;;;19.10;25.92
49915;BME280;35806;47.958;13.158;2023-03-23T13:17:44;94236.92;;;17.70;29.96
49915;BME280;35806;47.958;13.158;2023-03-23T13:20:39;94233.75;;;17.68;28.51
49915;BME280;35806;47.958;13.158;2023-03-23T13:23:12;94233.02;;;18.11;28.56